Time;durP1;ratioP1;P1;durP2;ratioP2;P2;SDS_P1;SDS_P2;PMS_P1;PMS_P2;Temp;Humidity;BMP_temperature;BMP_pressure;BME280_temperature;BME280_humidity;BME280_pressure;Samples;Min_cycle;Max_cycle;Signal;HPM_P1;HPM_P2
2022/11/28 00:00:20;;;;;;;11.48;5.70;;;14.50;72.00;;;;;;5124169;28;20065;-67
2022/11/28 00:02:46;;;;;;;8.63;6.00;;;14.50;72.00;;;;;;5124112;28;20022;-68
2022/11/28 00:05:12;;;;;;;11.98;6.03;;;14.50;71.90;;;;;;5124090;28;20024;-69
2022/11/28 00:07:37;;;;;;;11.93;5.57;;;14.50;71.90;;;;;;5124038;28;20327;-68
2022/11/28 00:10:06;;;;;;;8.90;5.60;;;14.50;71.90;;;;;;5123797;28;20079;-67
2022/11/28 00:12:33;;;;;;;8.80;5.40;;;14.50;72.00;;;;;;5123900;28;20207;-68
2022/11/28 00:14:59;;;;;;;10.88;6.13;;;14.50;72.20;;;;;;5122990;28;20084;-68
2022/11/28 00:17:25;;;;;;;9.02;5.85;;;14.50;72.30;;;;;;5123839;28;20023;-67
2022/11/28 00:19:50;;;;;;;10.48;5.57;;;14.50;72.40;;;;;;5123763;28;20023;-67
2022/11/28 00:22:16;;;;;;;9.25;5.63;;;14.50;72.40;;;;;;5123679;28;20043;-68
2022/11/28 00:24:42;;;;;;;9.88;5.18;;;14.40;72.40;;;;;;5123643;28;20019;-68
2022/11/28 00:27:08;;;;;;;9.32;5.55;;;14.50;72.40;;;;;;5123662;28;20319;-67
2022/11/28 00:29:33;;;;;;;8.23;5.13;;;14.40;72.50;;;;;;5123648;28;20076;-67
2022/11/28 00:31:59;;;;;;;9.07;5.55;;;14.40;72.50;;;;;;5123535;28;20024;-67
2022/11/28 00:34:25;;;;;;;10.05;5.32;;;14.40;72.60;;;;;;5123470;28;20015;-68
2022/11/28 00:36:51;;;;;;;10.48;5.68;;;14.40;72.60;;;;;;5123410;28;20015;-68
2022/11/28 00:39:16;;;;;;;9.70;5.30;;;14.50;72.50;;;;;;5123432;28;20019;-68
2022/11/28 00:41:43;;;;;;;8.30;5.40;;;14.50;72.40;;;;;;5105086;28;20043;-68
2022/11/28 00:44:09;;;;;;;8.63;5.03;;;14.40;72.30;;;;;;5123335;28;20031;-68
2022/11/28 00:46:35;;;;;;;11.00;5.25;;;14.50;72.30;;;;;;5123291;28;20333;-68
2022/11/28 00:49:01;;;;;;;8.60;5.50;;;14.50;72.30;;;;;;5123250;28;20027;-68
2022/11/28 00:51:29;;;;;;;9.15;5.57;;;14.40;72.20;;;;;;5123115;28;20057;-68
2022/11/28 00:53:58;;;;;;;7.95;5.18;;;14.50;72.20;;;;;;5123173;28;20333;-68
2022/11/28 00:56:27;;;;;;;9.07;5.10;;;14.50;72.20;;;;;;5123143;28;20019;-68
2022/11/28 00:58:54;;;;;;;9.27;5.55;;;14.40;72.10;;;;;;5122935;28;20051;-67
2022/11/28 01:01:32;;;;;;;9.68;4.82;;;14.50;72.20;;;;;;5123025;28;20203;-68
2022/11/28 01:04:01;;;;;;;7.43;5.13;;;14.50;72.00;;;;;;5123021;28;20184;-68
2022/11/28 01:06:38;;;;;;;7.75;5.55;;;14.50;72.00;;;;;;5122927;28;20047;-68
2022/11/28 01:09:08;;;;;;;9.02;5.75;;;14.50;72.00;;;;;;5122863;28;20019;-68
2022/11/28 01:11:36;;;;;;;9.07;5.43;;;14.50;72.00;;;;;;5122862;28;20081;-68
2022/11/28 01:14:02;;;;;;;9.47;5.07;;;14.50;71.80;;;;;;5122864;28;20011;-67
2022/11/28 01:16:28;;;;;;;12.45;6.05;;;14.50;71.90;;;;;;5122799;28;20011;-68
2022/11/28 01:18:54;;;;;;;8.70;5.63;;;14.50;71.90;;;;;;5122814;28;20015;-67
2022/11/28 01:21:21;;;;;;;8.70;5.03;;;14.50;71.80;;;;;;5122791;28;20091;-68
2022/11/28 01:23:46;;;;;;;6.38;4.35;;;14.50;72.30;;;;;;5122792;28;20074;-68
2022/11/28 01:26:31;;;;;;;8.65;4.65;;;14.50;71.90;;;;;;5122558;28;20057;-67
2022/11/28 01:28:58;;;;;;;9.57;5.25;;;14.50;72.00;;;;;;5122651;28;20015;-68
2022/11/28 01:31:26;;;;;;;8.15;5.32;;;14.50;72.20;;;;;;5122208;28;20030;-68
2022/11/28 01:33:55;;;;;;;6.75;4.70;;;14.50;72.30;;;;;;5122589;28;20269;-69
2022/11/28 01:36:22;;;;;;;7.55;4.75;;;14.40;72.30;;;;;;5122540;28;20019;-68
2022/11/28 01:38:48;;;;;;;8.15;5.25;;;14.50;72.40;;;;;;5122596;28;20207;-68
2022/11/28 01:41:18;;;;;;;8.55;4.30;;;14.40;72.40;;;;;;5122515;28;20157;-69
2022/11/28 01:43:56;;;;;;;8.43;5.07;;;14.50;72.40;;;;;;5122477;28;20019;-69
2022/11/28 01:46:21;;;;;;;6.65;4.57;;;14.50;72.50;;;;;;5122580;28;20024;-68
2022/11/28 01:48:47;;;;;;;6.28;4.43;;;14.40;72.40;;;;;;5122457;28;20020;-68
2022/11/28 01:51:13;;;;;;;7.68;4.57;;;14.40;72.50;;;;;;5122457;28;20234;-69
2022/11/28 01:53:42;;;;;;;8.20;5.07;;;14.40;72.70;;;;;;5122483;28;20011;-67
2022/11/28 01:56:14;;;;;;;8.38;4.80;;;14.40;72.50;;;;;;5122410;28;20315;-68
2022/11/28 01:58:44;;;;;;;8.05;5.32;;;14.50;73.20;;;;;;5122441;28;20024;-67
2022/11/28 02:01:10;;;;;;;9.25;5.18;;;14.40;72.40;;;;;;5122394;28;20091;-68
2022/11/28 02:03:43;;;;;;;8.48;4.75;;;14.50;72.30;;;;;;5122341;28;20278;-67
2022/11/28 02:06:11;;;;;;;6.97;4.70;;;14.50;72.20;;;;;;5122375;28;20078;-67
2022/11/28 02:08:37;;;;;;;8.20;4.33;;;14.50;72.20;;;;;;5122298;28;20326;-68
2022/11/28 02:11:21;;;;;;;9.57;5.50;;;14.50;72.20;;;;;;5122210;28;20092;-68
2022/11/28 02:14:09;;;;;;;8.02;4.88;;;14.50;72.20;;;;;;5122259;28;20056;-67
2022/11/28 02:16:55;;;;;;;8.40;4.70;;;14.50;72.20;;;;;;5122273;28;20083;-68
2022/11/28 02:19:24;;;;;;;8.43;5.22;;;14.50;72.10;;;;;;5122202;28;20211;-67
2022/11/28 02:22:19;;;;;;;6.57;4.53;;;14.40;72.10;;;;;;5122150;28;20037;-68
2022/11/28 02:25:11;;;;;;;8.52;5.45;;;14.50;72.00;;;;;;5113073;28;20036;-69
2022/11/28 02:27:56;;;;;;;8.23;5.50;;;14.50;72.60;;;;;;5122093;28;20032;-67
2022/11/28 02:30:44;;;;;;;7.32;5.03;;;14.50;72.00;;;;;;5122032;28;20034;-67
2022/11/28 02:33:19;;;;;;;8.30;4.88;;;14.50;71.90;;;;;;5122027;28;20245;-67
2022/11/28 02:36:06;;;;;;;7.13;4.60;;;14.50;71.90;;;;;;5122029;28;20022;-68
2022/11/28 02:38:41;;;;;;;15.02;5.40;;;14.50;71.80;;;;;;5123517;28;20068;-67
2022/11/28 02:41:11;;;;;;;8.63;5.18;;;14.50;71.80;;;;;;5125555;28;20062;-67
2022/11/28 02:43:50;;;;;;;7.15;4.63;;;14.50;71.80;;;;;;5125672;28;20039;-68
2022/11/28 02:46:32;;;;;;;7.85;5.13;;;14.50;71.90;;;;;;5125622;28;20019;-68
2022/11/28 02:49:04;;;;;;;8.18;5.22;;;14.50;72.10;;;;;;5125645;28;20304;-68
2022/11/28 02:51:35;;;;;;;7.00;4.25;;;14.50;72.30;;;;;;5125523;28;20381;-68
2022/11/28 02:54:04;;;;;;;9.68;4.80;;;14.50;72.30;;;;;;5125513;28;20019;-68
2022/11/28 02:56:30;;;;;;;6.35;4.50;;;14.40;72.30;;;;;;5125309;28;20045;-67
2022/11/28 02:58:56;;;;;;;9.07;5.72;;;14.40;72.40;;;;;;5125362;28;20038;-67
2022/11/28 03:01:29;;;;;;;7.30;4.80;;;14.40;72.40;;;;;;5125355;28;20613;-67
2022/11/28 03:04:32;;;;;;;8.52;4.82;;;14.40;73.00;;;;;;5125276;28;20019;-67
2022/11/28 03:07:35;;;;;;;5.85;4.32;;;14.40;72.30;;;;;;5125185;28;20042;-68
2022/11/28 03:10:12;;;;;;;6.57;4.55;;;14.40;72.30;;;;;;5113999;28;20035;-68
2022/11/28 03:13:01;;;;;;;7.97;4.30;;;14.40;72.50;;;;;;5125081;28;20072;-67
2022/11/28 03:15:31;;;;;;;;;;;14.40;72.40;;;;;;5114643;28;20035;-67
2022/11/28 03:18:24;;;;;;;7.05;4.53;;;14.40;72.40;;;;;;5124995;28;19903;-67
2022/11/28 03:21:05;;;;;;;7.47;4.30;;;14.40;72.30;;;;;;5116862;28;20090;-66
2022/11/28 03:23:41;;;;;;;8.00;4.97;;;14.40;72.20;;;;;;5124906;28;20016;-68
2022/11/28 03:26:25;;;;;;;20.67;6.05;;;14.50;72.10;;;;;;5124880;28;20039;-68
2022/11/28 03:29:17;;;;;;;5.90;4.05;;;14.50;72.00;;;;;;5124907;28;20137;-68
2022/11/28 03:31:59;;;;;;;7.00;4.47;;;14.50;72.00;;;;;;5124644;28;20099;-67
2022/11/28 03:34:31;;;;;;;9.32;5.47;;;14.50;71.90;;;;;;5124662;28;20077;-68
2022/11/28 03:37:15;;;;;;;7.97;4.68;;;14.50;72.00;;;;;;5124680;28;20338;-68
2022/11/28 03:39:47;;;;;;;7.03;4.32;;;14.50;71.80;;;;;;5124708;28;20027;-67
2022/11/28 03:42:21;;;;;;;8.68;4.18;;;14.50;71.80;;;;;;5124424;28;20191;-68
2022/11/28 03:45:16;;;;;;;9.13;4.78;;;14.50;71.80;;;;;;5124532;28;20028;-67
2022/11/28 03:47:51;;;;;;;7.43;4.75;;;14.50;71.70;;;;;;5124448;28;20023;-67
2022/11/28 03:50:24;;;;;;;7.40;4.60;;;14.50;71.80;;;;;;5124258;28;20027;-67
2022/11/28 03:52:55;;;;;;;8.32;4.88;;;14.50;71.70;;;;;;5124312;28;20018;-67
2022/11/28 03:55:29;;;;;;;8.13;4.55;;;14.50;71.60;;;;;;5124306;28;20039;-67
2022/11/28 03:58:26;;;;;;;7.50;4.57;;;14.50;71.60;;;;;;5124231;28;20283;-67
2022/11/28 04:01:04;;;;;;;9.50;4.43;;;14.50;71.70;;;;;;5103980;28;20253;-68
2022/11/28 04:03:47;;;;;;;8.55;4.80;;;14.40;71.90;;;;;;5124138;28;20019;-68
2022/11/28 04:06:42;;;;;;;5.38;4.40;;;14.40;72.10;;;;;;5123987;28;20027;-68
2022/11/28 04:09:13;;;;;;;7.75;4.45;;;14.40;72.10;;;;;;5124014;28;20038;-68
2022/11/28 04:12:11;;;;;;;8.18;5.13;;;14.40;72.30;;;;;;5123957;28;20038;-68
2022/11/28 04:15:01;;;;;;;7.78;4.72;;;14.40;72.10;;;;;;5123950;28;20039;-68
2022/11/28 04:17:30;;;;;;;6.30;4.03;;;14.50;72.30;;;;;;5122888;28;20028;-68
2022/11/28 04:20:14;;;;;;;6.97;4.07;;;14.40;72.40;;;;;;5105626;28;20020;-68
2022/11/28 04:22:48;;;;;;;7.55;4.25;;;14.50;72.30;;;;;;5123775;28;20069;-67
2022/11/28 04:25:18;;;;;;;7.30;4.68;;;14.40;72.40;;;;;;5123785;28;20024;-68
2022/11/28 04:27:53;;;;;;;6.93;4.10;;;14.40;72.50;;;;;;5123747;28;20144;-68
2022/11/28 04:30:19;;;;;;;6.80;4.22;;;14.40;72.30;;;;;;5123547;28;20253;-68
2022/11/28 04:32:49;;;;;;;7.25;4.55;;;14.50;72.30;;;;;;5123548;28;20015;-67
2022/11/28 04:35:41;;;;;;;5.88;4.05;;;14.50;72.20;;;;;;5123522;28;20020;-68
2022/11/28 04:38:08;;;;;;;7.10;4.78;;;14.50;72.10;;;;;;5105252;28;20121;-67
2022/11/28 04:40:43;;;;;;;9.27;4.75;;;14.40;72.10;;;;;;5123159;28;20047;-67
2022/11/28 04:43:16;;;;;;;5.95;4.03;;;14.50;72.00;;;;;;5123433;28;20015;-68
2022/11/28 04:45:53;;;;;;;7.80;4.72;;;14.50;72.00;;;;;;5123389;28;20019;-68
2022/11/28 04:48:19;;;;;;;6.85;4.97;;;14.50;72.00;;;;;;5123394;28;20015;-67
2022/11/28 04:51:02;;;;;;;6.82;4.20;;;14.50;71.90;;;;;;5123165;28;20055;-68
2022/11/28 04:53:47;;;;;;;7.38;4.72;;;14.50;71.90;;;;;;5123267;28;20023;-67
2022/11/28 04:56:26;;;;;;;6.18;4.38;;;14.50;71.70;;;;;;5123080;28;20299;-68
2022/11/28 04:58:52;;;;;;;6.40;4.20;;;14.50;71.80;;;;;;5123157;28;20252;-67
2022/11/28 05:01:27;;;;;;;5.30;3.92;;;14.50;71.70;;;;;;5122660;28;20031;-67
2022/11/28 05:03:53;;;;;;;7.35;4.15;;;14.50;71.70;;;;;;5123094;28;20024;-68
2022/11/28 05:06:27;;;;;;;7.78;4.65;;;14.50;71.60;;;;;;5122978;28;20011;-68
2022/11/28 05:08:52;;;;;;;4.88;3.58;;;14.50;71.60;;;;;;5122911;28;20027;-68
2022/11/28 05:11:19;;;;;;;6.07;4.32;;;14.50;71.50;;;;;;5122852;28;20332;-67
2022/11/28 05:13:45;;;;;;;6.65;4.68;;;14.50;71.50;;;;;;5122848;28;20015;-68
2022/11/28 05:16:12;;;;;;;7.18;4.53;;;14.50;71.60;;;;;;5122864;28;20092;-68
2022/11/28 05:18:38;;;;;;;8.88;4.40;;;14.50;71.70;;;;;;5122836;28;20018;-68
2022/11/28 05:21:07;;;;;;;9.35;5.35;;;14.50;72.00;;;;;;5122788;28;20023;-68
2022/11/28 05:23:38;;;;;;;5.65;4.28;;;14.40;71.90;;;;;;5104586;28;20218;-68
2022/11/28 05:26:09;;;;;;;6.35;4.25;;;14.50;72.00;;;;;;5122755;28;20069;-68
2022/11/28 05:28:36;;;;;;;6.30;4.30;;;14.40;72.00;;;;;;5122748;28;20027;-69
2022/11/28 05:31:02;;;;;;;7.30;4.75;;;14.40;72.00;;;;;;5122512;28;20023;-67
2022/11/28 05:33:29;;;;;;;8.15;4.60;;;14.50;72.20;;;;;;5122588;28;20016;-68
2022/11/28 05:35:56;;;;;;;5.80;4.20;;;14.50;72.20;;;;;;5122539;28;20015;-68
2022/11/28 05:38:22;;;;;;;6.68;4.97;;;14.40;72.20;;;;;;5122509;28;20016;-68
2022/11/28 05:40:48;;;;;;;5.05;3.72;;;14.40;72.30;;;;;;5122326;28;20053;-67
2022/11/28 05:43:14;;;;;;;5.93;3.75;;;14.40;72.40;;;;;;5122570;28;20023;-67
2022/11/28 05:45:43;;;;;;;5.40;4.10;;;14.40;72.30;;;;;;5104299;28;20043;-67
2022/11/28 05:48:09;;;;;;;5.80;4.10;;;14.50;72.20;;;;;;5122512;28;20035;-68
2022/11/28 05:50:38;;;;;;;7.43;4.13;;;14.50;72.10;;;;;;5122407;28;20019;-68
2022/11/28 05:53:03;;;;;;;7.32;4.57;;;14.40;71.90;;;;;;5122404;28;20007;-68
2022/11/28 05:55:29;;;;;;;6.25;4.38;;;14.40;72.60;;;;;;5122531;28;20026;-69
2022/11/28 05:57:55;;;;;;;5.93;4.10;;;14.50;72.00;;;;;;5122368;28;20011;-69
2022/11/28 06:00:21;;;;;;;6.03;4.40;;;14.40;71.90;;;;;;5104076;28;20223;-67
2022/11/28 06:02:47;;;;;;;6.57;4.25;;;14.50;71.80;;;;;;5104057;28;20012;-68
2022/11/28 06:05:13;;;;;;;7.70;4.38;;;14.50;71.80;;;;;;5122227;28;20035;-68
2022/11/28 06:07:39;;;;;;;7.15;3.80;;;14.50;71.70;;;;;;5122294;28;20338;-69
2022/11/28 06:10:06;;;;;;;6.60;4.25;;;14.50;71.80;;;;;;5122262;28;20196;-68
2022/11/28 06:12:32;;;;;;;6.55;3.78;;;14.50;71.80;;;;;;5122275;28;20035;-68
2022/11/28 06:14:58;;;;;;;6.70;3.75;;;14.50;71.70;;;;;;5108067;28;20144;-67
2022/11/28 06:17:24;;;;;;;4.95;3.90;;;14.50;71.70;;;;;;5126190;28;20023;-67
2022/11/28 06:19:49;;;;;;;7.70;5.05;;;14.50;71.60;;;;;;5126079;28;20039;-68
2022/11/28 06:22:15;;;;;;;6.18;4.28;;;14.50;71.60;;;;;;5126123;28;20047;-67
2022/11/28 06:24:41;;;;;;;5.15;3.90;;;14.50;71.60;;;;;;5126055;28;20012;-68
2022/11/28 06:27:07;;;;;;;6.47;4.68;;;14.50;71.60;;;;;;5125976;28;20031;-67
2022/11/28 06:29:33;;;;;;;7.22;4.50;;;14.50;71.50;;;;;;5125935;28;20016;-68
2022/11/28 06:31:58;;;;;;;5.88;4.18;;;14.50;71.50;;;;;;5125877;28;20024;-68
2022/11/28 06:34:25;;;;;;;7.28;4.40;;;14.50;71.60;;;;;;5125843;28;20007;-68
2022/11/28 06:36:51;;;;;;;5.43;4.70;;;14.50;72.00;;;;;;5125917;28;20039;-68
2022/11/28 06:39:17;;;;;;;5.28;3.92;;;14.40;72.00;;;;;;5125795;28;20047;-67
2022/11/28 06:41:43;;;;;;;6.45;4.43;;;14.40;72.00;;;;;;5125507;28;20055;-67
2022/11/28 06:44:14;;;;;;;6.82;4.20;;;14.50;72.10;;;;;;5125658;28;20024;-68
2022/11/28 06:46:40;;;;;;;5.57;4.03;;;14.40;72.10;;;;;;5125626;28;20311;-68
2022/11/28 06:49:06;;;;;;;6.10;3.83;;;14.40;72.20;;;;;;5125607;28;20072;-69
2022/11/28 06:51:32;;;;;;;7.32;4.22;;;14.40;72.20;;;;;;5125468;28;20043;-68
2022/11/28 06:53:57;;;;;;;6.13;4.03;;;14.50;72.10;;;;;;5125561;28;20023;-68
2022/11/28 06:56:23;;;;;;;5.90;3.72;;;14.40;72.10;;;;;;5125448;28;20070;-68
2022/11/28 06:58:55;;;;;;;6.65;4.35;;;14.50;72.20;;;;;;5125306;28;20016;-68
2022/11/28 07:01:23;;;;;;;6.22;4.05;;;14.50;72.20;;;;;;5125390;28;20260;-68
2022/11/28 07:03:49;;;;;;;6.82;4.15;;;14.40;72.20;;;;;;5125243;28;20064;-67
2022/11/28 07:06:17;;;;;;;7.55;4.32;;;14.50;72.10;;;;;;5125163;28;20188;-67
2022/11/28 07:08:43;;;;;;;5.85;3.97;;;14.50;72.10;;;;;;5125243;28;20034;-67
2022/11/28 07:11:21;;;;;;;7.20;4.32;;;14.50;71.90;;;;;;5125098;28;20023;-67
2022/11/28 07:13:47;;;;;;;7.93;4.27;;;14.50;71.90;;;;;;5125175;28;20292;-67
2022/11/28 07:16:25;;;;;;;4.22;3.78;;;14.50;71.90;;;;;;5125085;28;20028;-68
2022/11/28 07:18:51;;;;;;;9.45;4.50;;;14.40;71.80;;;;;;5125070;28;20041;-68
2022/11/28 07:21:19;;;;;;;5.47;3.40;;;14.50;71.80;;;;;;5125024;28;20015;-69
2022/11/28 07:23:45;;;;;;;5.78;3.95;;;14.40;71.70;;;;;;5124583;28;20023;-68
2022/11/28 07:26:14;;;;;;;5.50;3.78;;;14.50;71.60;;;;;;5106667;28;20069;-68
2022/11/28 07:28:40;;;;;;;5.07;3.88;;;14.50;71.60;;;;;;5106680;28;20050;-68
2022/11/28 07:31:11;;;;;;;6.45;3.88;;;14.50;71.60;;;;;;5124679;28;20024;-69
2022/11/28 07:33:42;;;;;;;7.60;4.07;;;14.50;71.60;;;;;;5124712;28;20076;-68
2022/11/28 07:36:17;;;;;;;7.15;4.25;;;14.50;71.50;;;;;;5124711;28;20046;-67
2022/11/28 07:38:46;;;;;;;5.47;3.80;;;14.50;71.50;;;;;;5106407;28;20037;-68
2022/11/28 07:41:12;;;;;;;;;;;14.50;71.50;;;;;;5124839;28;20042;-67
2022/11/28 07:43:41;;;;;;;5.88;4.25;;;14.50;71.40;;;;;;5124430;28;19900;-67
2022/11/28 07:46:11;;;;;;;6.55;4.43;;;14.50;72.10;;;;;;5124510;28;20065;-68
2022/11/28 07:48:37;;;;;;;6.57;4.78;;;14.50;71.50;;;;;;5124396;28;20334;-68
2022/11/28 07:51:12;;;;;;;7.25;4.28;;;14.50;72.00;;;;;;5124320;28;20188;-68
2022/11/28 07:53:39;;;;;;;5.28;3.60;;;14.50;71.50;;;;;;5124380;28;20011;-68
2022/11/28 07:56:08;;;;;;;7.78;4.65;;;14.50;71.50;;;;;;5124261;28;20015;-67
2022/11/28 07:58:35;;;;;;;7.97;4.45;;;14.50;71.70;;;;;;5106028;28;20019;-68
2022/11/28 08:01:17;;;;;;;5.95;4.13;;;14.50;72.00;;;;;;5124182;28;20028;-67
2022/11/28 08:03:44;;;;;;;5.47;3.72;;;14.40;71.90;;;;;;5124143;28;20016;-68
2022/11/28 08:06:11;;;;;;;5.28;3.50;;;14.50;72.00;;;;;;5124100;28;20015;-68
2022/11/28 08:08:36;;;;;;;5.00;3.33;;;14.50;71.90;;;;;;5124054;28;20031;-68
2022/11/28 08:11:06;;;;;;;4.70;3.75;;;14.50;72.00;;;;;;5123867;28;20020;-68
2022/11/28 08:13:32;;;;;;;4.28;3.40;;;14.50;72.00;;;;;;5123959;28;20039;-68
2022/11/28 08:16:03;;;;;;;6.03;4.13;;;14.40;72.00;;;;;;5123799;28;20180;-68
2022/11/28 08:18:29;;;;;;;5.60;3.97;;;14.50;72.10;;;;;;5123844;28;20019;-67
2022/11/28 08:21:03;;;;;;;4.68;3.67;;;14.50;72.20;;;;;;5123796;28;20026;-68
2022/11/28 08:23:29;;;;;;;5.20;3.65;;;14.40;72.10;;;;;;5123807;28;20024;-68
2022/11/28 08:25:54;;;;;;;5.43;3.95;;;14.40;71.90;;;;;;5123664;28;20027;-68
2022/11/28 08:28:20;;;;;;;5.93;4.45;;;14.50;72.00;;;;;;5123650;28;20020;-69
2022/11/28 08:30:46;;;;;;;5.65;3.55;;;14.50;71.90;;;;;;5123479;28;20022;-68
2022/11/28 08:33:12;;;;;;;5.93;4.30;;;14.50;71.90;;;;;;5123553;28;20024;-69
2022/11/28 08:35:39;;;;;;;5.20;3.22;;;14.50;71.80;;;;;;5122704;28;20019;-67
2022/11/28 08:38:04;;;;;;;5.75;3.85;;;14.50;71.90;;;;;;5123382;28;20091;-67
2022/11/28 08:40:30;;;;;;;6.38;3.80;;;14.50;71.80;;;;;;5123199;28;20027;-67
2022/11/28 08:42:57;;;;;;;5.40;3.63;;;14.50;71.80;;;;;;5123333;28;20214;-68
2022/11/28 08:45:23;;;;;;;5.05;3.42;;;14.50;71.80;;;;;;5123326;28;20080;-68
2022/11/28 08:47:49;;;;;;;5.70;4.38;;;14.50;71.80;;;;;;5123323;28;20024;-67
2022/11/28 08:50:15;;;;;;;4.55;3.58;;;14.50;71.60;;;;;;5123156;28;20077;-68
2022/11/28 08:52:40;;;;;;;6.88;3.38;;;14.50;71.60;;;;;;5123215;28;20024;-67
2022/11/28 08:55:06;;;;;;;4.78;3.17;;;14.50;71.60;;;;;;5123171;28;20337;-67
2022/11/28 08:57:32;;;;;;;4.43;3.40;;;14.50;71.50;;;;;;5123063;28;20203;-68
2022/11/28 08:59:58;;;;;;;5.70;4.03;;;14.50;71.40;;;;;;5123059;28;20022;-68
2022/11/28 09:02:23;;;;;;;5.00;3.90;;;14.50;71.40;;;;;;5123006;28;20015;-68
2022/11/28 09:04:49;;;;;;;5.35;3.92;;;14.50;71.40;;;;;;5123013;28;20019;-68
2022/11/28 09:07:15;;;;;;;6.57;4.38;;;14.50;71.30;;;;;;5123018;28;20057;-67
2022/11/28 09:09:41;;;;;;;5.20;3.88;;;14.50;71.30;;;;;;5122931;28;20041;-68
2022/11/28 09:12:07;;;;;;;6.35;3.83;;;14.50;71.40;;;;;;5122803;28;20262;-67
2022/11/28 09:14:32;;;;;;;7.60;4.13;;;14.50;71.50;;;;;;5122917;28;20023;-68
2022/11/28 09:16:58;;;;;;;4.47;3.53;;;14.50;71.60;;;;;;5122771;28;20015;-68
2022/11/28 09:19:24;;;;;;;6.15;3.83;;;14.50;71.70;;;;;;5122767;28;20015;-67
2022/11/28 09:21:50;;;;;;;5.20;3.92;;;14.40;71.90;;;;;;5122746;28;20019;-67
2022/11/28 09:24:16;;;;;;;5.65;3.70;;;14.50;72.00;;;;;;5122642;28;20338;-68
2022/11/28 09:26:42;;;;;;;6.18;4.22;;;14.50;72.00;;;;;;5122680;28;20016;-67
2022/11/28 09:29:08;;;;;;;6.75;4.28;;;14.50;72.60;;;;;;5122754;28;20027;-68
2022/11/28 09:31:33;;;;;;;5.28;3.65;;;14.50;72.00;;;;;;5122627;28;20019;-67
2022/11/28 09:33:59;;;;;;;5.60;4.40;;;14.40;72.00;;;;;;5122794;28;20023;-68
2022/11/28 09:36:27;;;;;;;6.45;4.20;;;14.50;72.10;;;;;;5122676;28;20011;-68
2022/11/28 09:38:52;;;;;;;4.88;3.47;;;14.50;72.20;;;;;;5122633;28;20311;-68
2022/11/28 09:41:27;;;;;;;5.65;3.25;;;14.50;72.20;;;;;;5122428;28;20073;-68
2022/11/28 09:44:17;;;;;;;5.47;3.58;;;14.40;72.00;;;;;;5122543;28;20286;-68
2022/11/28 09:46:45;;;;;;;4.63;3.72;;;14.50;71.90;;;;;;5122822;28;20288;-67
2022/11/28 09:49:22;;;;;;;6.50;4.35;;;14.50;71.90;;;;;;5126804;28;20020;-68
2022/11/28 09:52:19;;;;;;;6.20;4.75;;;14.50;71.70;;;;;;5126651;28;20030;-68
2022/11/28 09:54:51;;;;;;;5.78;3.85;;;14.50;71.80;;;;;;5122638;28;20031;-68
2022/11/28 09:57:39;;;;;;;6.88;4.47;;;14.50;71.70;;;;;;5126709;28;20039;-67
2022/11/28 10:00:16;;;;;;;6.43;4.13;;;14.50;71.70;;;;;;5126599;28;20012;-68
2022/11/28 10:02:50;;;;;;;5.30;3.67;;;14.50;71.70;;;;;;5126585;28;20028;-69
2022/11/28 10:05:30;;;;;;;6.03;4.38;;;14.50;71.50;;;;;;5126591;28;20302;-67
2022/11/28 10:08:10;;;;;;;5.70;4.00;;;14.50;71.60;;;;;;5126460;28;20022;-67
2022/11/28 10:10:58;;;;;;;5.20;3.20;;;14.50;71.70;;;;;;5126350;28;20054;-69
2022/11/28 10:13:31;;;;;;;6.45;3.80;;;14.50;71.60;;;;;;5126383;28;20060;-69
2022/11/28 10:16:07;;;;;;;5.57;3.50;;;14.50;71.60;;;;;;5126398;28;20028;-67
2022/11/28 10:18:40;;;;;;;5.00;3.80;;;14.50;71.60;;;;;;5126365;28;20016;-68
2022/11/28 10:21:30;;;;;;;4.32;3.33;;;14.50;71.50;;;;;;5126176;28;20031;-67
2022/11/28 10:24:00;;;;;;;5.28;4.22;;;14.50;71.40;;;;;;5126176;28;20027;-67
2022/11/28 10:26:43;;;;;;;4.97;3.78;;;14.50;71.50;;;;;;5126402;28;20341;-68
2022/11/28 10:29:38;;;;;;;5.97;3.70;;;14.50;71.40;;;;;;5126054;28;20077;-68
2022/11/28 10:32:05;;;;;;;6.10;3.75;;;14.50;71.40;;;;;;5088942;28;20099;-67
2022/11/28 10:34:33;;;;;;;4.82;3.83;;;14.50;71.50;;;;;;5125895;28;20298;-67
2022/11/28 10:37:02;;;;;;;5.47;3.53;;;14.50;71.50;;;;;;5125908;28;20023;-68
2022/11/28 10:39:28;;;;;;;4.40;3.65;;;14.50;71.60;;;;;;5125876;28;20028;-68
2022/11/28 10:42:12;;;;;;;4.68;3.60;;;14.50;71.80;;;;;;5125585;28;20102;-67
2022/11/28 10:44:57;;;;;;;6.07;3.67;;;14.50;71.80;;;;;;5125803;28;20019;-68
2022/11/28 10:47:51;;;;;;;6.15;3.75;;;14.50;71.80;;;;;;5125726;28;20109;-67
2022/11/28 10:50:26;;;;;;;4.53;3.78;;;14.50;71.70;;;;;;5107303;28;20311;-68
2022/11/28 10:52:52;;;;;;;4.50;3.38;;;14.50;71.80;;;;;;5107453;28;20047;-69
2022/11/28 10:55:33;;;;;;;5.93;3.90;;;14.50;71.80;;;;;;5125599;28;20072;-67
2022/11/28 10:58:13;;;;;;;4.32;3.28;;;14.50;71.70;;;;;;5125541;28;20026;-68
2022/11/28 11:00:39;;;;;;;4.18;3.22;;;14.50;71.90;;;;;;5125013;28;20347;-69
2022/11/28 11:03:12;;;;;;;6.65;4.35;;;14.40;72.00;;;;;;5125319;28;20016;-68
2022/11/28 11:05:38;;;;;;;4.40;3.67;;;14.50;71.90;;;;;;5125402;28;20354;-67
2022/11/28 11:08:16;;;;;;;5.22;3.15;;;14.50;71.90;;;;;;5125216;28;20038;-67
2022/11/28 11:10:51;;;;;;;5.95;3.80;;;14.50;71.90;;;;;;5125212;28;20323;-67
2022/11/28 11:13:19;;;;;;;5.15;3.40;;;14.50;71.90;;;;;;5125171;28;20091;-68
2022/11/28 11:15:47;;;;;;;4.85;3.67;;;14.50;71.90;;;;;;5125121;28;20050;-68
2022/11/28 11:18:40;;;;;;;;;;;14.50;71.80;;;;;;5125511;28;20095;-67
2022/11/28 11:21:07;;;;;;;5.25;4.00;;;14.50;71.60;;;;;;5093403;28;19937;-69
2022/11/28 11:23:33;;;;;;;5.22;3.47;;;14.50;71.80;;;;;;5124986;28;20051;-68
2022/11/28 11:25:59;;;;;;;5.18;3.90;;;14.50;71.60;;;;;;5124935;28;20042;-68
2022/11/28 11:28:30;;;;;;;5.07;3.50;;;14.50;71.50;;;;;;5124874;28;20083;-68
2022/11/28 11:31:04;;;;;;;5.22;3.90;;;14.50;71.50;;;;;;5124745;28;20015;-67
2022/11/28 11:33:34;;;;;;;4.50;3.20;;;14.50;71.50;;;;;;5124759;28;20018;-67
2022/11/28 11:36:03;;;;;;;4.50;3.78;;;14.50;71.50;;;;;;5124995;28;20008;-69
2022/11/28 11:38:33;;;;;;;5.72;3.45;;;14.50;71.50;;;;;;5124674;28;20023;-68
2022/11/28 11:41:27;;;;;;;5.32;3.70;;;14.50;71.50;;;;;;5124514;28;20050;-68
2022/11/28 11:43:53;;;;;;;4.40;3.55;;;14.50;71.40;;;;;;5124624;28;20231;-68
2022/11/28 11:46:19;;;;;;;5.25;3.42;;;14.50;71.50;;;;;;5124615;28;20114;-68
2022/11/28 11:48:47;;;;;;;4.57;3.70;;;14.50;71.50;;;;;;5124517;28;20031;-67
2022/11/28 11:51:26;;;;;;;4.50;3.10;;;14.50;71.50;;;;;;5124408;28;20015;-68
2022/11/28 11:54:07;;;;;;;5.38;3.58;;;14.50;71.50;;;;;;5124459;28;20370;-68
2022/11/28 11:56:37;;;;;;;5.57;3.75;;;14.50;71.50;;;;;;5124392;28;20030;-68
2022/11/28 11:59:14;;;;;;;4.93;3.72;;;14.50;71.60;;;;;;5124610;28;20057;-68
2022/11/28 12:01:42;;;;;;;4.32;3.45;;;14.50;71.80;;;;;;5124311;28;20058;-68
2022/11/28 12:04:17;;;;;;;4.30;3.33;;;14.50;71.90;;;;;;5124175;28;20023;-68
2022/11/28 12:06:50;;;;;;;4.80;3.53;;;14.50;71.80;;;;;;5124090;28;20046;-68
2022/11/28 12:09:29;;;;;;;5.90;3.58;;;14.50;71.80;;;;;;5124103;28;20071;-67
2022/11/28 12:12:18;;;;;;;5.50;3.90;;;14.50;71.70;;;;;;5122898;28;20031;-68
2022/11/28 12:14:47;;;;;;;4.30;2.95;;;14.50;71.80;;;;;;5123442;28;20034;-67
2022/11/28 12:17:20;;;;;;;5.50;3.97;;;14.50;71.80;;;;;;5123957;28;20075;-68
2022/11/28 12:19:57;;;;;;;6.53;3.65;;;14.50;71.90;;;;;;5123868;28;20248;-68
2022/11/28 12:22:26;;;;;;;5.00;3.70;;;14.50;72.00;;;;;;5123835;28;20031;-68
2022/11/28 12:25:10;;;;;;;4.95;3.47;;;14.50;72.00;;;;;;5123776;28;20244;-68
2022/11/28 12:28:04;;;;;;;6.00;3.85;;;14.50;71.80;;;;;;5123801;28;20020;-67
2022/11/28 12:30:35;;;;;;;4.22;3.15;;;14.50;71.80;;;;;;5123643;28;20034;-67
2022/11/28 12:33:20;;;;;;;4.75;3.47;;;14.50;71.90;;;;;;5105360;28;20016;-68
2022/11/28 12:36:24;;;;;;;4.65;3.50;;;14.50;72.40;;;;;;5123565;28;20219;-68
2022/11/28 12:39:16;;;;;;;4.40;3.80;;;14.50;71.60;;;;;;5123510;28;20368;-67
2022/11/28 12:41:45;;;;;;;5.03;3.75;;;14.50;71.50;;;;;;5123256;28;20092;-68
2022/11/28 12:44:51;;;;;;;3.67;3.20;;;14.50;71.60;;;;;;5123441;28;20036;-68
2022/11/28 12:47:54;;;;;;;5.97;3.78;;;14.50;71.50;;;;;;5105219;28;20023;-67
2022/11/28 12:50:45;;;;;;;4.82;3.60;;;14.50;71.50;;;;;;5123219;28;20019;-68
2022/11/28 12:53:23;;;;;;;4.40;3.45;;;14.50;71.40;;;;;;5123330;28;20038;-68
2022/11/28 12:56:21;;;;;;;4.80;3.42;;;14.50;71.40;;;;;;5123203;28;20016;-68
2022/11/28 12:58:53;;;;;;;5.47;3.87;;;14.50;71.40;;;;;;5084689;28;20027;-68
2022/11/28 13:01:51;;;;;;;6.03;3.53;;;14.50;71.30;;;;;;5123093;28;20020;-68
2022/11/28 13:04:54;;;;;;;4.65;3.45;;;14.50;71.20;;;;;;5123054;28;20311;-68
2022/11/28 13:07:50;;;;;;;5.28;3.85;;;14.50;71.30;;;;;;5123043;28;20028;-68
2022/11/28 13:10:16;;;;;;;4.53;3.97;;;14.50;71.30;;;;;;5123043;28;20031;-68
2022/11/28 13:12:59;;;;;;;6.43;4.25;;;14.50;71.20;;;;;;5122844;28;20046;-67
2022/11/28 13:15:47;;;;;;;4.95;3.25;;;14.50;71.20;;;;;;5122905;28;20015;-68